Time;durP1;ratioP1;P1;durP2;ratioP2;P2;SDS_P1;SDS_P2;PMS_P1;PMS_P2;Temp;Humidity;BMP_temperature;BMP_pressure;BME280_temperature;BME280_humidity;BME280_pressure;Samples;Min_cycle;Max_cycle;Signal;HPM_P1;HPM_P2
2023/08/01 00:01:22;;;;;;;10.20;9.20;;;;;;;24.89;88.66;99332.81;5096470;28;20036;-64
2023/08/01 00:03:47;;;;;;;9.32;8.43;;;;;;;24.89;88.31;99328.22;5095590;28;20051;-64
2023/08/01 00:06:13;;;;;;;11.13;9.13;;;;;;;24.92;88.46;99341.22;5095281;28;20113;-63
2023/08/01 00:08:38;;;;;;;9.75;8.73;;;;;;;24.94;88.37;99343.69;5095686;28;20020;-63
2023/08/01 00:11:04;;;;;;;11.20;8.75;;;;;;;24.95;88.32;99338.00;5097295;28;20043;-63
2023/08/01 00:13:29;;;;;;;10.80;9.70;;;;;;;24.99;88.17;99333.72;5095720;28;20294;-63
2023/08/01 00:15:55;;;;;;;9.95;8.85;;;;;;;25.03;87.97;99334.00;5096398;28;20218;-64
2023/08/01 00:18:20;;;;;;;9.68;8.50;;;;;;;25.07;85.48;99335.94;5095056;28;20028;-64
2023/08/01 00:20:46;;;;;;;12.93;9.27;;;;;;;25.05;86.50;99331.84;5095981;28;20036;-64
2023/08/01 00:23:11;;;;;;;9.85;8.48;;;;;;;25.06;86.85;99331.59;5094317;28;20036;-64
2023/08/01 00:25:37;;;;;;;9.80;8.82;;;;;;;25.11;86.24;99328.91;5096865;28;20048;-64
2023/08/01 00:28:02;;;;;;;10.35;8.68;;;;;;;25.12;85.64;99321.56;5097385;28;20035;-64
2023/08/01 00:30:28;;;;;;;10.25;8.30;;;;;;;25.14;84.86;99317.53;5095875;28;20377;-64
2023/08/01 00:32:53;;;;;;;9.50;8.50;;;;;;;25.14;85.07;99314.81;5096668;28;20046;-64
2023/08/01 00:35:19;;;;;;;11.25;8.15;;;;;;;25.13;84.99;99317.78;5096590;28;20054;-64
2023/08/01 00:37:44;;;;;;;9.73;8.50;;;;;;;25.10;85.33;99311.00;5096816;28;20035;-63
2023/08/01 00:40:10;;;;;;;9.00;8.18;;;;;;;25.12;84.89;99318.88;5096964;28;20043;-65
2023/08/01 00:42:40;;;;;;;9.30;8.35;;;;;;;25.05;83.90;99316.41;5097027;28;20052;-64
2023/08/01 00:45:06;;;;;;;9.18;8.27;;;;;;;25.05;84.39;99315.59;5095635;28;20059;-65
2023/08/01 00:47:31;;;;;;;10.90;8.45;;;;;;;25.05;83.63;99304.78;5101731;28;20036;-65
2023/08/01 00:49:57;;;;;;;10.75;8.65;;;;;;;24.97;84.11;99310.63;5095510;28;20027;-65
2023/08/01 00:52:22;;;;;;;10.23;8.70;;;;;;;24.89;85.66;99301.13;5095124;28;20040;-65
2023/08/01 00:54:48;;;;;;;14.23;9.82;;;;;;;24.89;86.74;99298.44;5095329;28;20109;-65
2023/08/01 00:57:14;;;;;;;10.70;9.45;;;;;;;24.94;86.62;99292.22;5096558;28;20106;-65
2023/08/01 00:59:39;;;;;;;11.52;9.00;;;;;;;24.93;85.37;99293.28;5096542;28;20388;-65
2023/08/01 01:02:05;;;;;;;9.02;7.95;;;;;;;24.75;85.50;99287.28;5094678;28;20216;-64
2023/08/01 01:04:31;;;;;;;10.95;9.48;;;;;;;24.73;86.53;99286.75;5095863;28;20127;-65
2023/08/01 01:07:05;;;;;;;10.27;9.15;;;;;;;24.68;87.13;99283.19;5097891;28;20028;-65
2023/08/01 01:09:31;;;;;;;10.90;8.93;;;;;;;24.75;86.44;99273.75;5095698;28;20046;-64
2023/08/01 01:11:58;;;;;;;9.57;8.63;;;;;;;24.81;85.08;99274.56;5096861;28;20028;-65
2023/08/01 01:14:25;;;;;;;9.77;8.48;;;;;;;24.77;83.96;99279.72;5097487;28;20035;-64
2023/08/01 01:16:51;;;;;;;9.88;8.45;;;;;;;24.78;82.82;99275.94;5095512;28;20855;-65
2023/08/01 01:19:16;;;;;;;10.45;8.07;;;;;;;24.70;82.44;99271.03;5098735;28;20062;-64
2023/08/01 01:21:43;;;;;;;9.00;8.10;;;;;;;24.77;81.97;99265.34;5097542;28;20593;-65
2023/08/01 01:24:11;;;;;;;8.65;7.43;;;;;;;24.79;81.42;99260.50;5094849;28;20054;-65
2023/08/01 01:26:38;;;;;;;10.25;8.40;;;;;;;24.88;80.20;99261.59;5096652;28;20036;-65
2023/08/01 01:29:05;;;;;;;10.50;7.88;;;;;;;24.91;79.71;99250.22;5095607;28;20043;-65
2023/08/01 01:31:32;;;;;;;10.02;8.02;;;;;;;24.88;79.01;99255.38;5097560;28;20063;-65
2023/08/01 01:33:58;;;;;;;8.50;7.70;;;;;;;24.82;78.79;99255.34;5099098;28;20036;-64
2023/08/01 01:36:24;;;;;;;8.85;7.88;;;;;;;24.79;78.86;99253.19;5099735;28;20031;-65
2023/08/01 01:38:49;;;;;;;10.50;7.65;;;;;;;24.72;78.38;99244.50;5100566;28;20352;-65
2023/08/01 01:41:15;;;;;;;7.70;6.93;;;;;;;24.73;78.68;99245.31;5099779;28;20027;-65
2023/08/01 01:43:40;;;;;;;8.52;7.38;;;;;;;24.74;78.06;99252.34;5098664;28;20061;-63
2023/08/01 01:46:06;;;;;;;8.63;7.68;;;;;;;24.69;78.34;99246.94;5099849;28;20048;-64
2023/08/01 01:48:31;;;;;;;8.73;7.72;;;;;;;24.51;79.49;99251.75;5097503;28;20325;-64
2023/08/01 01:50:57;;;;;;;7.85;7.05;;;;;;;24.32;80.40;99247.88;5096731;28;20036;-63
2023/08/01 01:53:22;;;;;;;8.98;8.07;;;;;;;24.15;79.89;99247.22;5099749;28;20032;-64
2023/08/01 01:55:48;;;;;;;8.93;7.60;;;;;;;24.24;79.64;99248.34;5105576;28;20044;-65
2023/08/01 01:58:13;;;;;;;10.27;8.32;;;;;;;24.27;79.85;99253.25;5111002;28;20036;-64
2023/08/01 02:00:39;;;;;;;9.45;8.52;;;;;;;24.24;79.96;99251.06;5113899;28;20032;-65
2023/08/01 02:03:04;;;;;;;10.00;8.65;;;;;;;24.27;79.93;99252.44;5104126;28;20039;-64
2023/08/01 02:05:30;;;;;;;9.95;8.95;;;;;;;24.32;80.11;99255.19;5109102;28;20077;-64
2023/08/01 02:07:55;;;;;;;11.05;9.43;;;;;;;24.39;80.09;99258.44;5107589;28;20027;-64
2023/08/01 02:10:21;;;;;;;10.70;8.38;;;;;;;24.45;79.49;99255.50;5107941;28;20230;-64
2023/08/01 02:12:46;;;;;;;10.43;9.32;;;;;;;24.43;79.40;99257.66;5105832;28;20040;-64
2023/08/01 02:15:12;;;;;;;9.75;8.75;;;;;;;24.27;80.15;99265.97;5108357;28;20249;-64
2023/08/01 02:17:37;;;;;;;9.60;8.45;;;;;;;24.24;80.38;99258.34;5110157;28;20358;-64
2023/08/01 02:20:03;;;;;;;10.48;8.43;;;;;;;24.22;80.14;99265.91;5105431;28;20035;-65
2023/08/01 02:22:28;;;;;;;9.63;8.63;;;;;;;24.18;80.05;99266.44;5108489;28;20038;-64
2023/08/01 02:24:54;;;;;;;10.27;8.98;;;;;;;24.26;79.20;99277.84;5103056;28;20044;-64
2023/08/01 02:27:19;;;;;;;12.63;9.98;;;;;;;23.32;84.61;99287.38;5107363;28;20024;-64
2023/08/01 02:29:45;;;;;;;11.73;9.20;;;;;;;23.08;87.45;99296.88;5108088;28;20044;-65
2023/08/01 02:32:10;;;;;;;13.00;11.00;;;;;;;22.61;92.65;99294.66;5107093;28;20084;-64
2023/08/01 02:34:35;;;;;;;13.55;10.85;;;;;;;22.75;92.59;99295.09;5105719;28;20036;-64
2023/08/01 02:37:01;;;;;;;15.30;10.93;;;;;;;22.45;93.10;99288.25;5108011;28;20033;-64
2023/08/01 02:39:26;;;;;;;13.20;10.57;;;;;;;22.41;94.06;99297.91;5103482;28;20039;-65
2023/08/01 02:41:52;;;;;;;13.05;11.07;;;;;;;22.72;92.29;99293.72;5106011;28;20263;-64
2023/08/01 02:44:17;;;;;;;13.27;10.65;;;;;;;22.83;90.85;99292.78;5101939;28;20040;-64
2023/08/01 02:46:43;;;;;;;11.80;10.32;;;;;;;22.84;90.00;99288.19;5112763;28;20027;-64
2023/08/01 02:49:08;;;;;;;14.13;9.85;;;;;;;22.99;89.87;99293.81;5100876;28;20348;-64
2023/08/01 02:51:34;;;;;;;12.70;10.60;;;;;;;23.15;89.88;99290.19;5098459;28;20352;-65
2023/08/01 02:53:59;;;;;;;12.55;11.23;;;;;;;23.25;90.67;99290.28;5095908;28;20031;-64
2023/08/01 02:56:24;;;;;;;13.50;10.07;;;;;;;23.25;90.21;99295.69;5097533;28;20024;-63
2023/08/01 02:58:51;;;;;;;14.45;12.00;;;;;;;23.33;89.87;99304.41;5095676;28;20412;-63
2023/08/01 03:01:17;;;;;;;14.70;12.38;;;;;;;23.46;89.58;99304.78;5098431;28;20031;-64
2023/08/01 03:03:43;;;;;;;15.23;11.20;;;;;;;23.60;88.70;99305.22;5095561;28;20082;-64
2023/08/01 03:06:08;;;;;;;14.25;10.38;;;;;;;23.63;88.69;99307.41;5097361;28;20044;-64
2023/08/01 03:08:34;;;;;;;15.90;10.70;;;;;;;23.74;87.72;99302.91;5096969;28;20024;-64
2023/08/01 03:10:59;;;;;;;14.52;11.70;;;;;;;23.78;87.13;99312.13;5099084;28;20040;-64
2023/08/01 03:13:25;;;;;;;15.10;12.45;;;;;;;23.76;87.54;99308.84;5096781;28;20047;-63
2023/08/01 03:15:50;;;;;;;13.88;11.73;;;;;;;23.74;87.76;99311.81;5097920;28;20330;-63
2023/08/01 03:18:15;;;;;;;14.43;11.70;;;;;;;23.74;88.23;99305.59;5095746;28;20038;-64
2023/08/01 03:20:41;;;;;;;13.30;11.05;;;;;;;23.78;88.29;99310.22;5097206;28;20062;-63
2023/08/01 03:23:06;;;;;;;15.02;11.93;;;;;;;23.82;87.99;99308.63;5096480;28;20393;-64
2023/08/01 03:25:32;;;;;;;13.90;12.13;;;;;;;23.89;88.13;99311.13;5096828;28;20043;-64
2023/08/01 03:27:57;;;;;;;13.95;11.45;;;;;;;23.94;87.46;99308.47;5098339;28;20061;-63
2023/08/01 03:30:23;;;;;;;14.15;11.50;;;;;;;23.97;87.53;99309.84;5098606;28;20288;-64
2023/08/01 03:32:48;;;;;;;13.70;11.23;;;;;;;24.00;87.21;99303.94;5096784;28;20031;-63
2023/08/01 03:35:14;;;;;;;14.75;11.50;;;;;;;23.99;86.63;99315.81;5098008;28;20044;-64
2023/08/01 03:37:40;;;;;;;14.07;11.52;;;;;;;23.97;86.07;99315.25;5098267;28;20113;-63
2023/08/01 03:40:08;;;;;;;15.35;10.55;;;;;;;24.00;85.70;99317.44;5096304;28;20051;-64
2023/08/01 03:42:34;;;;;;;16.15;11.55;;;;;;;23.91;85.80;99330.59;5095915;28;20032;-64
2023/08/01 03:45:00;;;;;;;14.27;11.00;;;;;;;23.62;86.91;99319.28;5092384;28;20338;-64
2023/08/01 03:47:26;;;;;;;15.57;11.55;;;;;;;23.64;86.79;99332.53;5095564;28;20028;-64
2023/08/01 03:49:51;;;;;;;15.65;11.30;;;;;;;23.71;86.79;99328.56;5097996;28;20478;-64
2023/08/01 03:52:16;;;;;;;14.50;11.48;;;;;;;23.72;86.79;99330.19;5094392;28;20214;-65
2023/08/01 03:54:42;;;;;;;15.30;13.60;;;;;;;23.82;87.19;99329.44;5094722;28;20083;-64
2023/08/01 03:57:07;;;;;;;16.17;11.98;;;;;;;23.91;87.29;99333.31;5097300;28;20024;-64
2023/08/01 03:59:33;;;;;;;16.65;12.60;;;;;;;23.98;87.37;99328.53;5095734;28;20040;-63
2023/08/01 04:01:58;;;;;;;16.92;13.65;;;;;;;23.99;87.07;99332.03;5095367;28;20027;-65
2023/08/01 04:04:24;;;;;;;17.27;13.85;;;;;;;23.99;87.50;99330.16;5096416;28;20075;-64
2023/08/01 04:06:49;;;;;;;18.27;14.57;;;;;;;24.03;87.31;99325.84;5092288;28;20386;-64
2023/08/01 04:09:15;;;;;;;18.50;14.15;;;;;;;24.10;86.58;99328.34;5096689;28;20239;-65
2023/08/01 04:11:40;;;;;;;16.02;14.27;;;;;;;24.15;86.01;99325.66;5094289;28;20024;-64
2023/08/01 04:14:05;;;;;;;16.98;13.32;;;;;;;24.16;85.69;99316.47;5096261;28;20051;-65
2023/08/01 04:16:31;;;;;;;14.23;12.63;;;;;;;24.26;84.54;99329.25;5094413;28;20513;-65
2023/08/01 04:18:56;;;;;;;16.83;13.73;;;;;;;24.33;84.32;99325.25;5095527;28;20043;-65
2023/08/01 04:21:22;;;;;;;28.35;19.92;;;;;;;24.38;85.21;99319.06;5095793;28;20046;-65
2023/08/01 04:23:47;;;;;;;22.35;16.67;;;;;;;24.31;86.72;99326.59;5097204;28;20040;-65
2023/08/01 04:26:13;;;;;;;19.73;14.82;;;;;;;24.22;88.47;99330.84;5095572;28;20051;-65
2023/08/01 04:28:38;;;;;;;18.95;14.80;;;;;;;24.21;89.20;99335.44;5095284;28;20038;-65
2023/08/01 04:31:04;;;;;;;19.50;15.48;;;;;;;24.27;88.56;99339.03;5096714;28;20040;-65
2023/08/01 04:33:29;;;;;;;17.73;14.63;;;;;;;24.35;88.52;99333.94;5096569;28;20040;-65
2023/08/01 04:35:55;;;;;;;17.83;14.32;;;;;;;24.44;86.45;99334.25;5095032;28;20044;-65
2023/08/01 04:38:20;;;;;;;15.38;13.45;;;;;;;24.45;85.23;99338.59;5094579;28;20036;-63
2023/08/01 04:40:45;;;;;;;18.17;14.35;;;;;;;24.33;85.97;99332.56;5095672;28;20044;-64
2023/08/01 04:43:12;;;;;;;17.55;15.45;;;;;;;24.43;85.99;99335.31;5096219;28;20032;-63
2023/08/01 04:45:37;;;;;;;16.58;13.57;;;;;;;24.42;85.49;99337.22;5094848;28;20078;-64
2023/08/01 04:48:03;;;;;;;18.45;15.05;;;;;;;24.42;86.05;99342.63;5095819;28;20033;-64
2023/08/01 04:50:28;;;;;;;16.05;13.07;;;;;;;24.68;84.44;99332.75;5093592;28;20292;-64
2023/08/01 04:52:54;;;;;;;13.68;11.90;;;;;;;24.96;82.19;99331.50;5095990;28;20028;-64
2023/08/01 04:55:19;;;;;;;16.05;12.48;;;;;;;25.14;80.82;99331.06;5095858;28;20050;-64
2023/08/01 04:57:45;;;;;;;13.73;9.85;;;;;;;25.36;78.71;99336.25;5096485;28;20200;-63
2023/08/01 05:00:11;;;;;;;12.82;9.70;;;;;;;25.53;74.31;99333.31;5096029;28;20221;-64
2023/08/01 05:02:37;;;;;;;9.27;8.25;;;;;;;25.70;72.97;99338.50;5106002;28;20044;-64
2023/08/01 05:05:03;;;;;;;11.70;8.98;;;;;;;25.89;71.83;99338.75;5097444;28;20046;-64
2023/08/01 05:07:29;;;;;;;8.57;7.63;;;;;;;26.03;69.06;99337.97;5100575;28;20035;-64
2023/08/01 05:09:54;;;;;;;10.77;6.75;;;;;;;26.21;66.98;99341.19;5099807;28;20088;-64
2023/08/01 05:12:20;;;;;;;8.55;6.78;;;;;;;26.32;66.25;99335.50;5098364;28;20334;-64
2023/08/01 05:14:45;;;;;;;7.82;6.15;;;;;;;26.43;66.32;99340.91;5098752;28;20042;-64
2023/08/01 05:17:11;;;;;;;7.75;6.40;;;;;;;26.51;65.49;99341.16;5097942;28;20054;-64
2023/08/01 05:19:36;;;;;;;7.22;6.47;;;;;;;26.46;64.30;99343.88;5099578;28;20036;-64
2023/08/01 05:22:02;;;;;;;6.10;5.50;;;;;;;26.54;65.46;99335.16;5100160;28;20036;-64
2023/08/01 05:24:27;;;;;;;6.40;5.80;;;;;;;26.72;64.94;99347.31;5099452;28;20394;-64
2023/08/01 05:26:53;;;;;;;7.88;7.00;;;;;;;26.77;65.31;99352.75;5098027;28;20082;-64
2023/08/01 05:29:18;;;;;;;7.90;6.25;;;;;;;26.66;67.32;99345.72;5098210;28;20051;-64
2023/08/01 05:31:44;;;;;;;5.35;4.78;;;;;;;26.67;64.58;99347.34;5098262;28;20061;-63
2023/08/01 05:34:09;;;;;;;5.10;4.28;;;;;;;26.54;63.78;99356.09;5100199;28;20027;-63
2023/08/01 05:36:36;;;;;;;6.93;5.40;;;;;;;26.58;65.61;99357.16;5098886;28;20073;-63
2023/08/01 05:39:03;;;;;;;6.97;4.78;;;;;;;26.83;63.94;99356.25;5098132;28;20032;-64
2023/08/01 05:41:28;;;;;;;6.25;5.07;;;;;;;27.02;63.47;99349.94;5098563;28;20084;-63
2023/08/01 05:43:54;;;;;;;5.07;4.00;;;;;;;27.09;62.50;99352.38;5098694;28;20059;-62
2023/08/01 05:46:19;;;;;;;3.90;3.60;;;;;;;27.29;61.33;99356.91;5098414;28;20050;-63
2023/08/01 05:48:45;;;;;;;4.00;3.70;;;;;;;27.48;57.75;99355.13;5098386;28;20032;-63
2023/08/01 05:51:10;;;;;;;3.70;3.40;;;;;;;27.64;56.50;99362.13;5098689;28;20055;-63
2023/08/01 05:53:36;;;;;;;3.28;3.08;;;;;;;27.69;54.64;99361.28;5097618;28;20042;-62
2023/08/01 05:56:02;;;;;;;4.78;3.40;;;;;;;27.77;53.67;99357.94;5097736;28;20253;-62
2023/08/01 05:58:27;;;;;;;4.22;3.40;;;;;;;27.80;54.78;99353.84;5096567;28;20228;-63
2023/08/01 06:00:52;;;;;;;3.67;3.38;;;;;;;27.62;53.31;99361.59;5097502;28;20051;-63
2023/08/01 06:03:18;;;;;;;3.85;2.88;;;;;;;27.77;53.20;99365.28;5097583;28;20044;-64
2023/08/01 06:05:43;;;;;;;3.33;3.00;;;;;;;27.67;53.03;99361.56;5097599;28;20501;-63
2023/08/01 06:08:09;;;;;;;3.40;3.03;;;;;;;27.95;51.67;99370.03;5098594;28;20100;-63
2023/08/01 06:10:35;;;;;;;3.63;3.22;;;;;;;28.02;52.44;99362.38;5097994;28;20039;-63
2023/08/01 06:13:01;;;;;;;3.30;3.00;;;;;;;28.35;50.61;99365.38;5097940;28;20046;-63
2023/08/01 06:15:26;;;;;;;2.97;2.78;;;;;;;28.53;50.65;99362.72;5096656;28;20032;-62
2023/08/01 06:17:52;;;;;;;3.67;2.78;;;;;;;28.72;50.19;99351.06;5099109;28;20289;-64
2023/08/01 06:20:18;;;;;;;3.40;3.05;;;;;;;28.82;48.83;99353.69;5096883;28;20062;-63
2023/08/01 06:22:43;;;;;;;3.33;3.03;;;;;;;28.93;48.69;99336.94;5099852;28;20330;-63
2023/08/01 06:25:09;;;;;;;3.28;2.88;;;;;;;28.93;48.00;99345.13;5100118;28;20036;-63
2023/08/01 06:27:34;;;;;;;3.40;2.97;;;;;;;28.89;48.84;99346.00;5099645;28;20031;-64
2023/08/01 06:30:00;;;;;;;3.50;3.00;;;;;;;28.94;48.25;99340.47;5099242;28;20036;-63
2023/08/01 06:32:26;;;;;;;6.53;2.97;;;;;;;29.22;46.98;99342.28;5099551;28;20050;-64
2023/08/01 06:34:51;;;;;;;3.63;3.17;;;;;;;29.19;47.54;99336.63;5099932;28;20039;-64
2023/08/01 06:37:16;;;;;;;3.85;3.55;;;;;;;29.41;47.76;99336.84;5097556;28;20039;-64
2023/08/01 06:39:42;;;;;;;4.10;3.75;;;;;;;29.44;48.20;99335.47;5098295;28;20044;-64
2023/08/01 06:42:07;;;;;;;3.80;3.50;;;;;;;29.50;48.01;99331.56;5098443;28;20036;-64
2023/08/01 06:44:33;;;;;;;3.58;3.28;;;;;;;29.82;47.44;99336.22;5098147;28;20038;-64
2023/08/01 06:46:59;;;;;;;4.22;3.20;;;;;;;29.81;46.84;99329.94;5098841;28;20275;-64
2023/08/01 06:49:24;;;;;;;3.58;3.13;;;;;;;30.02;46.49;99337.81;5098282;28;20036;-64
2023/08/01 06:51:50;;;;;;;4.30;3.90;;;;;;;29.94;45.49;99338.47;5097937;28;20271;-64
2023/08/01 06:54:15;;;;;;;3.47;3.17;;;;;;;30.08;45.15;99336.63;5097793;28;20333;-64
2023/08/01 06:56:47;;;;;;;4.95;3.67;;;;;;;29.94;45.87;99333.03;5098655;28;20028;-64
2023/08/01 06:59:15;;;;;;;5.20;3.88;;;;;;;30.09;44.04;99340.97;5097436;28;20044;-64
2023/08/01 07:01:43;;;;;;;4.25;3.53;;;;;;;30.05;43.65;99335.31;5098400;28;20264;-64
2023/08/01 07:04:13;;;;;;;4.15;3.75;;;;;;;30.22;44.84;99332.03;5097947;28;20094;-64
2023/08/01 07:06:38;;;;;;;3.97;3.50;;;;;;;30.59;43.70;99327.53;5098085;28;20036;-64
2023/08/01 07:09:04;;;;;;;3.38;3.17;;;;;;;30.85;42.70;99320.41;5098211;28;20039;-64
2023/08/01 07:11:29;;;;;;;3.85;3.33;;;;;;;31.02;42.56;99309.66;5097742;28;20036;-64
2023/08/01 07:13:55;;;;;;;3.67;3.38;;;;;;;31.15;42.61;99318.97;5097792;28;20050;-63
2023/08/01 07:16:20;;;;;;;3.40;3.10;;;;;;;31.06;42.00;99318.84;5098077;28;20085;-63
2023/08/01 07:18:48;;;;;;;4.25;3.85;;;;;;;31.22;41.03;99313.09;5097161;28;20379;-63
2023/08/01 07:21:13;;;;;;;4.13;3.25;;;;;;;31.03;41.67;99316.72;5096892;28;20058;-63
2023/08/01 07:23:39;;;;;;;3.80;3.47;;;;;;;30.88;41.86;99317.06;5097900;28;20024;-63
2023/08/01 07:26:05;;;;;;;4.72;3.45;;;;;;;31.21;41.87;99325.13;5097924;28;20044;-63
2023/08/01 07:28:31;;;;;;;4.05;3.35;;;;;;;31.30;40.09;99313.19;5097222;28;20034;-63
2023/08/01 07:31:01;;;;;;;4.80;3.08;;;;;;;31.36;40.45;99314.69;5097915;28;20264;-63
2023/08/01 07:33:27;;;;;;;3.22;2.90;;;;;;;31.54;40.99;99306.59;5097706;28;20409;-63
2023/08/01 07:35:52;;;;;;;3.42;3.13;;;;;;;31.29;40.62;99313.47;5097602;28;20067;-63
2023/08/01 07:38:18;;;;;;;4.40;3.30;;;;;;;31.29;40.56;99308.00;5097335;28;20052;-63
2023/08/01 07:40:45;;;;;;;4.40;3.10;;;;;;;31.48;40.70;99302.38;5097565;28;20031;-63
2023/08/01 07:43:12;;;;;;;3.88;3.08;;;;;;;31.62;39.95;99301.19;5097514;28;20043;-63
2023/08/01 07:45:38;;;;;;;3.47;2.72;;;;;;;31.74;39.33;99300.66;5097221;28;20114;-64
2023/08/01 07:48:04;;;;;;;3.10;2.80;;;;;;;32.21;38.22;99296.38;5096564;28;20040;-64
2023/08/01 07:50:29;;;;;;;3.67;3.38;;;;;;;32.57;36.85;99290.78;5096607;28;20280;-65
2023/08/01 07:52:55;;;;;;;3.60;3.03;;;;;;;32.46;37.13;99303.16;5096786;28;20044;-65
2023/08/01 07:55:21;;;;;;;4.95;3.00;;;;;;;32.50;36.90;99295.09;5097676;28;20030;-65
2023/08/01 07:57:47;;;;;;;3.47;2.83;;;;;;;32.72;36.14;99291.44;5097307;28;20051;-64
2023/08/01 08:00:13;;;;;;;3.08;2.65;;;;;;;32.69;36.78;99284.66;5096970;28;20039;-65
2023/08/01 08:02:38;;;;;;;3.40;2.90;;;;;;;32.95;35.65;99285.56;5096586;28;20042;-65
2023/08/01 08:05:04;;;;;;;4.57;3.03;;;;;;;33.08;35.02;99282.97;5096929;28;20051;-64
2023/08/01 08:07:31;;;;;;;3.58;2.85;;;;;;;32.87;36.21;99289.09;5097083;28;20123;-63
2023/08/01 08:09:57;;;;;;;3.47;2.95;;;;;;;32.95;34.38;99282.81;5097308;28;20036;-63
2023/08/01 08:12:23;;;;;;;3.20;2.90;;;;;;;32.84;34.15;99280.69;5096741;28;20047;-63
2023/08/01 08:14:48;;;;;;;4.85;3.53;;;;;;;32.83;35.16;99282.63;5096815;28;20081;-63
2023/08/01 08:17:15;;;;;;;3.17;2.78;;;;;;;32.84;33.64;99275.22;5097007;28;20300;-64
2023/08/01 08:19:40;;;;;;;3.25;2.90;;;;;;;32.90;35.20;99272.00;5096320;28;20043;-64
2023/08/01 08:22:06;;;;;;;4.18;2.80;;;;;;;32.78;33.84;99266.34;5096752;28;20063;-65
2023/08/01 08:24:31;;;;;;;3.25;2.83;;;;;;;33.02;33.70;99263.13;5096393;28;20036;-64
2023/08/01 08:26:57;;;;;;;3.45;2.83;;;;;;;33.24;32.54;99251.19;5096052;28;20424;-63
2023/08/01 08:29:22;;;;;;;3.20;2.90;;;;;;;33.47;32.58;99258.16;5096451;28;20081;-65
2023/08/01 08:31:48;;;;;;;4.28;2.97;;;;;;;33.69;32.37;99253.59;5097357;28;20077;-64
2023/08/01 08:34:13;;;;;;;3.20;2.53;;;;;;;33.60;33.12;99253.63;5096357;28;20367;-66
2023/08/01 08:36:39;;;;;;;3.75;2.70;;;;;;;33.57;32.66;99251.53;5096792;28;20040;-64
2023/08/01 08:39:04;;;;;;;2.95;2.75;;;;;;;33.59;31.55;99249.25;5096991;28;20032;-64
2023/08/01 08:41:42;;;;;;;3.13;2.83;;;;;;;33.51;31.50;99250.88;5100991;28;20031;-64
2023/08/01 08:44:10;;;;;;;4.72;3.30;;;;;;;33.37;32.32;99242.03;5100808;28;20044;-64
2023/08/01 08:46:43;;;;;;;3.65;2.80;;;;;;;33.41;31.58;99244.94;5100769;28;21025;-64
2023/08/01 08:49:08;;;;;;;3.22;2.88;;;;;;;33.31;32.65;99241.41;5100403;28;20046;-63
2023/08/01 08:51:36;;;;;;;3.10;2.70;;;;;;;33.33;31.81;99245.75;5099272;28;20032;-63
2023/08/01 08:54:03;;;;;;;3.33;3.03;;;;;;;33.09;32.76;99240.69;5101019;28;20107;-63
2023/08/01 08:56:29;;;;;;;3.60;3.13;;;;;;;32.96;33.28;99237.81;5101138;28;20036;-64
2023/08/01 08:58:55;;;;;;;4.05;3.17;;;;;;;32.91;33.67;99248.94;5100617;28;20096;-64
2023/08/01 09:01:20;;;;;;;4.05;2.90;;;;;;;32.94;33.51;99237.31;5100976;28;20445;-64
2023/08/01 09:03:46;;;;;;;3.38;3.08;;;;;;;32.69;34.27;99224.38;5100237;28;20230;-64
2023/08/01 09:06:17;;;;;;;4.65;3.28;;;;;;;32.71;34.02;99230.34;5100935;28;20040;-64
2023/08/01 09:08:55;;;;;;;3.63;3.08;;;;;;;32.64;34.52;99228.06;5093785;28;20438;-64
2023/08/01 09:11:20;;;;;;;4.40;3.22;;;;;;;32.69;35.40;99219.69;5093293;28;20036;-64
2023/08/01 09:13:47;;;;;;;2.70;2.50;;;;;;;32.88;34.20;99219.41;5091451;28;20089;-64
2023/08/01 09:16:15;;;;;;;3.53;3.20;;;;;;;32.69;33.43;99230.66;5095432;28;20103;-64
2023/08/01 09:18:48;;;;;;;3.63;3.22;;;;;;;32.61;33.54;99214.19;5093119;28;20248;-64
2023/08/01 09:21:13;;;;;;;3.55;3.22;;;;;;;32.38;34.16;99213.50;5092899;28;20034;-63
2023/08/01 09:23:39;;;;;;;3.90;3.50;;;;;;;32.14;35.11;99215.78;5094485;28;20032;-64
2023/08/01 09:26:18;;;;;;;3.95;3.47;;;;;;;31.51;35.49;99209.53;5094000;28;20035;-64
2023/08/01 09:28:44;;;;;;;3.28;3.00;;;;;;;31.70;35.53;99209.31;5091637;28;20077;-64
2023/08/01 09:31:11;;;;;;;4.00;3.65;;;;;;;31.85;34.85;99199.91;5092809;28;20028;-63
2023/08/01 09:33:42;;;;;;;3.88;3.58;;;;;;;31.82;35.16;99206.81;5093996;28;20037;-63
2023/08/01 09:36:09;;;;;;;4.55;3.42;;;;;;;31.71;35.42;99211.75;5091348;28;20130;-64
2023/08/01 09:38:35;;;;;;;4.35;3.25;;;;;;;31.77;34.98;99189.72;5092095;28;20040;-64
2023/08/01 09:41:02;;;;;;;4.63;3.25;;;;;;;31.68;35.38;99206.88;5091185;28;20078;-64
2023/08/01 09:43:37;;;;;;;3.28;3.08;;;;;;;31.78;35.95;99194.88;5094892;28;20040;-64
2023/08/01 09:46:03;;;;;;;3.47;2.83;;;;;;;31.50;36.03;99199.69;5095034;28;20255;-64
2023/08/01 09:48:30;;;;;;;3.38;3.00;;;;;;;31.24;35.96;99193.25;5092871;28;20040;-64
2023/08/01 09:51:06;;;;;;;3.22;2.90;;;;;;;30.93;35.47;99184.94;5093903;28;20035;-64
2023/08/01 09:53:32;;;;;;;2.88;2.67;;;;;;;30.82;35.31;99189.81;5094908;28;20073;-64
2023/08/01 09:56:01;;;;;;;2.58;2.38;;;;;;;30.78;34.71;99184.16;5092555;28;20027;-64
2023/08/01 09:58:34;;;;;;;2.97;2.65;;;;;;;30.82;33.32;99181.63;5094674;28;20032;-64
2023/08/01 10:01:01;;;;;;;3.08;2.50;;;;;;;30.78;33.84;99173.22;5093443;28;20024;-64
2023/08/01 10:03:29;;;;;;;2.90;2.70;;;;;;;30.31;37.54;99174.53;5092471;28;20048;-63
2023/08/01 10:05:56;;;;;;;3.28;3.00;;;;;;;30.44;37.14;99172.88;5093445;28;20352;-64
2023/08/01 10:08:22;;;;;;;3.78;3.40;;;;;;;30.63;37.42;99165.38;5093061;28;20097;-64
2023/08/01 10:10:48;;;;;;;3.20;2.90;;;;;;;30.73;37.45;99170.63;5092733;28;20255;-63
2023/08/01 10:13:14;;;;;;;3.58;3.28;;;;;;;30.60;37.64;99155.06;5092463;28;20362;-64
2023/08/01 10:15:40;;;;;;;3.72;3.35;;;;;;;30.83;36.05;99158.63;5091155;28;20290;-64
2023/08/01 10:18:06;;;;;;;3.78;3.47;;;;;;;30.90;37.42;99159.00;5091304;28;20325;-64
2023/08/01 10:20:32;;;;;;;3.60;3.30;;;;;;;30.76;38.05;99159.06;5091266;28;20031;-64
2023/08/01 10:22:59;;;;;;;4.05;3.50;;;;;;;30.79;36.33;99157.63;5092549;28;20150;-64
2023/08/01 10:25:26;;;;;;;3.45;3.15;;;;;;;30.55;34.46;99148.88;5092211;28;20352;-64
2023/08/01 10:28:06;;;;;;;4.32;3.50;;;;;;;30.55;38.48;99137.97;5094903;28;20032;-64
2023/08/01 10:30:31;;;;;;;3.65;3.22;;;;;;;30.59;38.21;99148.00;5093245;28;20040;-64
2023/08/01 10:32:59;;;;;;;4.63;3.22;;;;;;;30.50;37.58;99150.63;5098721;28;20305;-64
2023/08/01 10:35:37;;;;;;;3.90;3.60;;;;;;;30.41;38.67;99141.53;5098499;28;20046;-64
2023/08/01 10:38:07;;;;;;;3.85;3.50;;;;;;;30.39;37.95;99130.09;5097371;28;20039;-64
2023/08/01 10:40:41;;;;;;;5.32;3.72;;;;;;;30.47;38.69;99125.84;5098528;28;20348;-64
2023/08/01 10:43:20;;;;;;;4.30;3.92;;;;;;;30.55;36.69;99127.03;5098193;28;20349;-64
2023/08/01 10:45:45;;;;;;;4.32;3.90;;;;;;;30.62;36.71;99122.78;5098687;28;20036;-64
2023/08/01 10:48:11;;;;;;;4.38;3.50;;;;;;;30.50;34.30;99117.84;5098906;28;20403;-64
2023/08/01 10:50:37;;;;;;;3.95;3.65;;;;;;;30.57;35.40;99117.41;5098413;28;20232;-64
2023/08/01 10:53:08;;;;;;;4.38;3.97;;;;;;;30.78;34.33;99110.38;5098470;28;20259;-64
2023/08/01 10:55:45;;;;;;;3.78;3.47;;;;;;;30.78;35.20;99104.91;5098491;28;20036;-64
2023/08/01 10:58:10;;;;;;;4.15;3.85;;;;;;;30.75;34.51;99099.25;5097753;28;20077;-64
2023/08/01 11:00:36;;;;;;;4.05;3.65;;;;;;;30.79;35.43;99097.50;5097398;28;20043;-64
2023/08/01 11:03:02;;;;;;;3.92;3.63;;;;;;;30.92;35.25;99099.38;5097064;28;20048;-64
2023/08/01 11:05:29;;;;;;;4.05;3.75;;;;;;;30.99;34.84;99086.06;5098343;28;20039;-63
2023/08/01 11:08:02;;;;;;;5.43;4.32;;;;;;;30.98;34.15;99089.13;5097616;28;20081;-64
2023/08/01 11:10:30;;;;;;;5.28;4.20;;;;;;;31.01;34.50;99086.56;5098203;28;20032;-64
2023/08/01 11:12:56;;;;;;;4.88;3.92;;;;;;;31.08;35.20;99081.47;5097433;28;20047;-64
2023/08/01 11:15:22;;;;;;;4.78;4.28;;;;;;;30.94;34.88;99066.25;5096900;28;20036;-64
2023/08/01 11:17:53;;;;;;;4.80;4.40;;;;;;;30.95;35.64;99073.34;5098256;28;20043;-64
2023/08/01 11:20:21;;;;;;;5.03;4.57;;;;;;;31.09;35.45;99069.41;5098040;28;20039;-64
2023/08/01 11:23:00;;;;;;;4.72;4.32;;;;;;;31.17;35.81;99067.06;5097466;28;20071;-64
2023/08/01 11:25:38;;;;;;;4.72;4.22;;;;;;;31.05;35.88;99056.66;5097946;28;20092;-63